createdAt,value
2023-05-19T00:01:51.135Z,95496.84
2023-05-19T00:04:22.799Z,95494.69
2023-05-19T00:06:52.347Z,95495.91
2023-05-19T00:09:21.380Z,95501.84
2023-05-19T00:11:50.700Z,95493.28
2023-05-19T00:14:22.531Z,95505.09
2023-05-19T00:16:51.768Z,95505.66
2023-05-19T00:19:20.021Z,95506.47
2023-05-19T00:21:49.279Z,95498.28
2023-05-19T00:24:17.552Z,95507.59
2023-05-19T00:26:45.609Z,95507.00
2023-05-19T00:29:13.895Z,95520.81
2023-05-19T00:31:42.619Z,95514.84
2023-05-19T00:34:10.995Z,95509.22
2023-05-19T00:36:39.050Z,95507.78
2023-05-19T00:39:07.575Z,95515.66
2023-05-19T00:41:36.365Z,95516.72
2023-05-19T00:44:04.815Z,95513.75
2023-05-19T00:46:32.864Z,95499.03
2023-05-19T00:49:00.996Z,95502.41
2023-05-19T00:51:30.058Z,95507.38
2023-05-19T00:53:58.770Z,95510.44
2023-05-19T00:56:27.443Z,95510.44
2023-05-19T00:58:56.011Z,95513.53
2023-05-19T01:01:27.126Z,95505.38
2023-05-19T01:03:59.358Z,95506.31
2023-05-19T01:06:28.078Z,95502.59
2023-05-19T01:08:57.785Z,95501.16
2023-05-19T01:11:25.978Z,95507.16
2023-05-19T01:13:54.245Z,95505.44
2023-05-19T01:16:40.938Z,95513.72
2023-05-19T01:19:25.677Z,95506.59
2023-05-19T01:22:07.179Z,95510.81
2023-05-19T01:24:59.173Z,95506.56
2023-05-19T01:27:48.993Z,95512.34
2023-05-19T01:30:20.012Z,95518.50
2023-05-19T01:32:52.831Z,95511.13
2023-05-19T01:35:25.113Z,95511.88
2023-05-19T01:37:57.431Z,95520.03
2023-05-19T01:40:27.024Z,95529.66
2023-05-19T01:42:57.815Z,95519.47
2023-05-19T01:45:29.746Z,95518.69
2023-05-19T01:48:00.315Z,95530.44
2023-05-19T01:50:30.054Z,95530.44
2023-05-19T01:52:58.849Z,95528.72
2023-05-19T01:55:27.473Z,95535.91
2023-05-19T01:58:18.011Z,95541.00
2023-05-19T02:00:53.209Z,95540.34
2023-05-19T02:03:39.261Z,95544.09
2023-05-19T02:06:16.357Z,95546.41
2023-05-19T02:09:02.620Z,95535.72
2023-05-19T02:11:56.997Z,95539.31
2023-05-19T02:14:38.772Z,95540.81
2023-05-19T02:17:07.228Z,95546.06
2023-05-19T02:19:39.388Z,95544.94
2023-05-19T02:22:07.878Z,95546.28
2023-05-19T02:24:37.891Z,95552.25
2023-05-19T02:27:06.609Z,95555.31
2023-05-19T02:29:35.265Z,95558.03
2023-05-19T02:32:03.552Z,95548.88
2023-05-19T02:34:31.842Z,95562.47
2023-05-19T02:37:00.264Z,95566.00
2023-05-19T02:39:29.610Z,95563.78
2023-05-19T02:41:57.831Z,95569.34
2023-05-19T02:44:25.898Z,95572.69
2023-05-19T02:46:54.202Z,95561.31
2023-05-19T02:49:22.334Z,95553.91
2023-05-19T02:51:50.718Z,95560.53
2023-05-19T02:54:21.990Z,95574.09
2023-05-19T02:56:50.297Z,95581.22
2023-05-19T02:59:18.221Z,95575.75
2023-05-19T03:01:47.945Z,95570.00
2023-05-19T03:04:15.836Z,95569.56
2023-05-19T03:06:45.856Z,95574.91
2023-05-19T03:09:14.836Z,95576.09
2023-05-19T03:11:43.391Z,95578.19
2023-05-19T03:14:12.443Z,95580.97
2023-05-19T03:16:42.713Z,95585.31
2023-05-19T03:19:10.811Z,95578.59
2023-05-19T03:21:41.660Z,95575.84
2023-05-19T03:24:09.531Z,95571.91
2023-05-19T03:26:38.343Z,95580.50
2023-05-19T03:29:08.715Z,95575.47
2023-05-19T03:31:38.570Z,95580.50
2023-05-19T03:34:06.608Z,95574.47
2023-05-19T03:36:39.937Z,95580.75
2023-05-19T03:39:13.333Z,95579.84
2023-05-19T03:41:41.964Z,95567.00
2023-05-19T03:44:09.753Z,95566.75
2023-05-19T03:46:38.744Z,95566.84
2023-05-19T03:49:26.190Z,95561.44
2023-05-19T03:52:13.237Z,95556.16
2023-05-19T03:54:54.704Z,95556.03
2023-05-19T03:57:23.026Z,95555.00
2023-05-19T03:59:50.992Z,95552.19
2023-05-19T04:02:19.488Z,95547.44
2023-05-19T04:04:50.926Z,95550.88
2023-05-19T04:07:19.763Z,95551.66
2023-05-19T04:09:48.920Z,95552.63
2023-05-19T04:12:17.328Z,95549.66
2023-05-19T04:14:46.400Z,95546.13
2023-05-19T04:17:14.746Z,95543.38
2023-05-19T04:19:42.720Z,95539.06
2023-05-19T04:22:10.918Z,95541.44
2023-05-19T04:24:38.851Z,95546.06
2023-05-19T04:27:12.332Z,95549.34
2023-05-19T04:29:41.425Z,95548.66
2023-05-19T04:32:10.989Z,95550.28
2023-05-19T04:34:40.701Z,95543.66
2023-05-19T04:37:10.550Z,95545.97
2023-05-19T04:39:41.634Z,95556.69
2023-05-19T04:42:11.676Z,95550.81
2023-05-19T04:44:40.436Z,95537.28
2023-05-19T04:47:11.901Z,95537.50
2023-05-19T04:49:40.035Z,95556.44
2023-05-19T04:52:11.146Z,95556.16
2023-05-19T04:54:40.536Z,95562.81
2023-05-19T04:57:11.609Z,95567.41
2023-05-19T04:59:41.013Z,95562.81
2023-05-19T05:02:10.095Z,95564.06
2023-05-19T05:04:42.786Z,95564.78
2023-05-19T05:07:11.747Z,95560.16
2023-05-19T05:09:40.374Z,95564.53
2023-05-19T05:12:09.677Z,95563.75
2023-05-19T05:14:40.533Z,95557.13
2023-05-19T05:17:11.225Z,95561.72
2023-05-19T05:19:39.529Z,95562.75
2023-05-19T05:22:08.464Z,95551.03
2023-05-19T05:24:40.300Z,95555.88
2023-05-19T05:27:10.550Z,95554.88
2023-05-19T05:29:38.730Z,95565.34
2023-05-19T05:32:08.686Z,95557.69
2023-05-19T05:34:38.408Z,95560.03
2023-05-19T05:37:06.958Z,95561.28
2023-05-19T05:39:35.966Z,95560.78
2023-05-19T05:42:04.402Z,95554.19
2023-05-19T05:44:34.545Z,95554.44
2023-05-19T05:47:04.559Z,95550.09
2023-05-19T05:49:33.149Z,95539.34
2023-05-19T05:52:06.111Z,95541.38
2023-05-19T05:54:40.310Z,95553.91
2023-05-19T05:57:09.917Z,95554.91
2023-05-19T05:59:38.926Z,95543.38
2023-05-19T06:02:07.849Z,95548.75
2023-05-19T06:04:36.558Z,95537.97
2023-05-19T06:07:05.803Z,95544.00
2023-05-19T06:09:37.620Z,95549.94
2023-05-19T06:12:07.770Z,95539.78
2023-05-19T06:14:41.468Z,95546.34
2023-05-19T06:17:36.398Z,95538.69
2023-05-19T06:20:09.159Z,95534.81
2023-05-19T06:22:40.964Z,95535.84
2023-05-19T06:25:10.228Z,95522.00
2023-05-19T06:27:38.741Z,95533.53
2023-05-19T06:30:10.284Z,95537.81
2023-05-19T06:32:58.986Z,95531.88
2023-05-19T06:35:27.694Z,95531.41
2023-05-19T06:37:56.654Z,95527.63
2023-05-19T06:40:24.851Z,95537.81
2023-05-19T06:42:53.232Z,95531.06
2023-05-19T06:45:29.599Z,95521.81
2023-05-19T06:47:59.773Z,95528.75
2023-05-19T06:50:28.519Z,95523.34
2023-05-19T06:52:59.174Z,95515.88
2023-05-19T06:55:28.053Z,95512.25
2023-05-19T06:57:56.605Z,95512.47
2023-05-19T07:00:24.450Z,95516.59
2023-05-19T07:02:54.518Z,95514.50
2023-05-19T07:05:23.136Z,95512.25
2023-05-19T07:07:56.873Z,95518.44
2023-05-19T07:10:28.742Z,95511.75
2023-05-19T07:12:58.739Z,95513.75
2023-05-19T07:15:30.404Z,95518.59
2023-05-19T07:17:59.376Z,95522.09
2023-05-19T07:20:27.509Z,95516.88
2023-05-19T07:22:56.494Z,95522.50
2023-05-19T07:25:25.092Z,95512.00
2023-05-19T07:27:53.698Z,95521.00
2023-05-19T07:30:21.581Z,95510.41
2023-05-19T07:32:50.843Z,95507.41
2023-05-19T07:35:18.875Z,95506.34
2023-05-19T07:37:47.097Z,95499.69
2023-05-19T07:40:15.791Z,95498.41
2023-05-19T07:42:49.012Z,95502.44
2023-05-19T07:45:18.187Z,95501.19
2023-05-19T07:47:46.580Z,95498.81
2023-05-19T07:50:14.493Z,95509.97
2023-05-19T07:52:43.044Z,95509.78
2023-05-19T07:55:11.934Z,95510.91
2023-05-19T07:57:40.177Z,95487.28
2023-05-19T08:00:10.345Z,95495.91
2023-05-19T08:02:40.686Z,95496.31
2023-05-19T08:05:09.763Z,95503.66
2023-05-19T08:07:38.184Z,95508.56
2023-05-19T08:10:06.494Z,95499.00
2023-05-19T08:12:34.923Z,95496.22
2023-05-19T08:15:02.926Z,95492.56
2023-05-19T08:17:33.195Z,95502.19
2023-05-19T08:34:59.889Z,95482.53
2023-05-19T08:37:28.681Z,95484.56
2023-05-19T08:39:57.707Z,95489.28
2023-05-19T08:42:26.147Z,95475.94
2023-05-19T08:44:54.228Z,95465.59
2023-05-19T08:47:23.133Z,95460.75
2023-05-19T08:49:53.580Z,95470.41
2023-05-19T08:52:36.723Z,95472.34
2023-05-19T08:55:09.939Z,95460.97
2023-05-19T08:57:38.797Z,95462.97
2023-05-19T09:00:12.421Z,95463.81
2023-05-19T09:02:50.618Z,95458.31
2023-05-19T09:05:30.052Z,95456.19
2023-05-19T09:07:58.462Z,95450.81
2023-05-19T09:10:28.480Z,95436.25
2023-05-19T09:12:57.965Z,95442.88
2023-05-19T09:15:28.745Z,95439.16
2023-05-19T09:18:11.853Z,95435.34
2023-05-19T09:20:41.864Z,95423.53
2023-05-19T09:23:18.073Z,95421.59
2023-05-19T09:25:50.464Z,95421.66
2023-05-19T09:28:29.717Z,95424.59
2023-05-19T09:31:15.612Z,95419.63
2023-05-19T09:33:45.759Z,95409.56
2023-05-19T09:36:14.555Z,95410.84
2023-05-19T09:38:42.916Z,95404.34
2023-05-19T09:41:11.380Z,95409.56
2023-05-19T09:43:39.848Z,95405.19
2023-05-19T09:46:14.960Z,95403.75
2023-05-19T09:48:45.263Z,95393.38
2023-05-19T09:51:13.269Z,95397.41
2023-05-19T09:53:42.443Z,95394.91
2023-05-19T09:56:10.507Z,95396.66
2023-05-19T09:58:42.940Z,95400.94
2023-05-19T10:01:11.579Z,95395.34
2023-05-19T10:03:40.790Z,95388.44
2023-05-19T10:06:09.658Z,95389.81
2023-05-19T10:08:40.026Z,95382.53
2023-05-19T10:11:08.904Z,95393.38
2023-05-19T10:13:39.328Z,95381.47
2023-05-19T10:16:08.956Z,95387.06
2023-05-19T10:18:40.023Z,95378.81
2023-05-19T10:21:09.293Z,95382.84
2023-05-19T10:23:37.713Z,95370.41
2023-05-19T10:26:07.134Z,95363.63
2023-05-19T10:28:39.599Z,95366.78
2023-05-19T10:31:11.827Z,95366.09
2023-05-19T10:33:58.628Z,95356.91
2023-05-19T10:36:44.640Z,95354.09
2023-05-19T10:39:25.670Z,95355.59
2023-05-19T10:42:24.848Z,95347.16
2023-05-19T10:45:18.382Z,95346.94
2023-05-19T10:47:46.740Z,95332.13
2023-05-19T10:50:16.015Z,95326.09
2023-05-19T10:52:45.230Z,95321.06
2023-05-19T10:55:17.899Z,95324.31
2023-05-19T10:57:57.188Z,95312.09
2023-05-19T11:00:30.583Z,95300.78
2023-05-19T11:03:14.910Z,95297.31
2023-05-19T11:05:45.953Z,95297.31
2023-05-19T11:08:14.025Z,95289.81
2023-05-19T11:10:47.040Z,95279.94
2023-05-19T11:13:23.526Z,95285.06
2023-05-19T11:18:21.339Z,95298.66
2023-05-19T11:20:58.661Z,95303.00
2023-05-19T11:23:26.998Z,95292.22
2023-05-19T11:25:55.296Z,95298.75
2023-05-19T11:28:28.490Z,95292.88
2023-05-19T11:30:59.376Z,95302.22
2023-05-19T11:33:30.487Z,95307.56
2023-05-19T11:35:58.931Z,95298.88
2023-05-19T11:38:30.384Z,95300.78
2023-05-19T11:40:59.363Z,95312.88
2023-05-19T11:43:27.809Z,95313.06
2023-05-19T11:45:56.423Z,95327.94
2023-05-19T11:48:26.969Z,95325.69
2023-05-19T11:50:57.116Z,95328.56
2023-05-19T11:53:25.264Z,95330.31
2023-05-19T11:55:54.562Z,95323.31
2023-05-19T11:58:28.071Z,95316.91
2023-05-19T12:00:57.553Z,95321.38
2023-05-19T12:03:29.004Z,95314.09
2023-05-19T12:05:57.660Z,95300.59
2023-05-19T12:08:26.096Z,95290.53
2023-05-19T12:10:54.671Z,95285.13
2023-05-19T12:13:23.735Z,95265.81
2023-05-19T12:16:00.946Z,95237.56
2023-05-19T12:18:32.150Z,95217.28
2023-05-19T12:21:00.903Z,95200.97
2023-05-19T12:23:31.087Z,95198.38
2023-05-19T12:26:00.304Z,95187.09
2023-05-19T12:28:31.445Z,95186.63
2023-05-19T12:31:00.028Z,95183.06
2023-05-19T12:33:27.992Z,95172.38
2023-05-19T12:35:56.561Z,95193.44
2023-05-19T12:38:24.535Z,95205.88
2023-05-19T12:40:53.198Z,95228.09
2023-05-19T12:43:22.823Z,95244.25
2023-05-19T12:45:51.671Z,95249.91
2023-05-19T12:48:23.006Z,95241.69
2023-05-19T12:50:57.178Z,95231.25
2023-05-19T12:53:27.470Z,95213.00
2023-05-19T15:07:36.002Z,95569.84
2023-05-19T15:10:05.210Z,95584.19
2023-05-19T15:12:33.254Z,95595.69
2023-05-19T15:15:01.651Z,95606.94
2023-05-19T15:17:30.122Z,95606.19
2023-05-19T15:19:58.440Z,95613.88
2023-05-19T15:22:27.391Z,95628.72
2023-05-19T15:24:55.830Z,95636.91
2023-05-19T15:27:23.835Z,95639.72
2023-05-19T15:29:52.232Z,95638.19
2023-05-19T15:32:20.490Z,95642.28
2023-05-19T15:34:49.281Z,95649.44
2023-05-19T15:37:17.333Z,95648.16
2023-05-19T15:39:45.869Z,95656.59
2023-05-19T15:42:13.710Z,95652.50
2023-05-19T15:44:41.963Z,95659.16
2023-05-19T15:47:10.075Z,95656.06
2023-05-19T15:49:38.450Z,95654.78
2023-05-19T15:52:06.894Z,95660.41
2023-05-19T15:54:35.274Z,95659.41
2023-05-19T15:57:03.094Z,95653.75
2023-05-19T15:59:31.472Z,95654.50
2023-05-19T16:01:59.633Z,95661.38
2023-05-19T16:04:27.840Z,95667.47
2023-05-19T16:06:55.944Z,95672.56
2023-05-19T16:09:24.185Z,95675.88
2023-05-19T16:11:52.354Z,95669.72
2023-05-19T16:14:21.136Z,95675.59
2023-05-19T16:16:49.220Z,95670.47
2023-05-19T16:19:17.985Z,95674.81
2023-05-19T16:21:46.085Z,95670.19
2023-05-19T16:24:14.322Z,95669.94
2023-05-19T16:26:42.192Z,95663.78
2023-05-19T16:29:10.425Z,95662.22
2023-05-19T16:31:39.240Z,95667.06
2023-05-19T16:34:07.657Z,95659.66
2023-05-19T16:36:35.690Z,95666.78
2023-05-19T16:39:04.290Z,95660.59
2023-05-19T16:41:32.157Z,95660.91
2023-05-19T16:44:02.554Z,95661.13
2023-05-19T16:46:31.669Z,95663.19
2023-05-19T16:49:00.575Z,95660.88
2023-05-19T16:51:28.476Z,95666.53
2023-05-19T16:53:56.833Z,95670.31
2023-05-19T16:56:24.779Z,95678.69
2023-05-19T16:58:54.908Z,95674.63
2023-05-19T17:01:23.133Z,95680.91
2023-05-19T17:03:51.880Z,95685.00
2023-05-19T17:06:19.804Z,95683.69
2023-05-19T17:08:48.164Z,95678.88
2023-05-19T17:11:16.175Z,95679.88
2023-05-19T17:13:46.605Z,95678.63
2023-05-19T17:16:14.851Z,95657.19
2023-05-19T17:18:44.072Z,95670.94
2023-05-19T17:21:12.311Z,95664.06
2023-05-19T17:23:42.167Z,95656.44
2023-05-19T17:26:10.116Z,95649.50
2023-05-19T17:28:38.393Z,95641.09
2023-05-19T17:31:12.696Z,95638.03
2023-05-19T17:33:41.548Z,95640.84
2023-05-19T17:36:09.934Z,95639.56
2023-05-19T17:38:40.594Z,95634.22
2023-05-19T17:41:14.263Z,95634.69
2023-05-19T17:43:43.156Z,95642.06
2023-05-19T17:46:12.041Z,95656.38
2023-05-19T17:48:40.501Z,95661.97
2023-05-19T17:51:08.520Z,95665.03
2023-05-19T17:53:37.370Z,95668.31
2023-05-19T17:56:07.608Z,95675.44
2023-05-19T17:58:36.637Z,95677.72
2023-05-19T18:01:04.849Z,95689.16
2023-05-19T18:03:33.656Z,95700.44
2023-05-19T18:06:02.491Z,95696.06
2023-05-19T18:08:32.235Z,95700.44
2023-05-19T18:11:01.029Z,95714.41
2023-05-19T18:13:29.281Z,95717.75
2023-05-19T18:15:59.416Z,95720.28
2023-05-19T18:18:27.892Z,95720.50
2023-05-19T18:20:55.813Z,95721.50
2023-05-19T18:23:24.120Z,95728.41
2023-05-19T18:25:53.961Z,95729.44
2023-05-19T18:28:24.134Z,95727.59
2023-05-19T18:31:15.890Z,95727.94
2023-05-19T18:33:44.528Z,95733.53
2023-05-19T18:36:15.755Z,95736.34
2023-05-19T18:38:44.351Z,95733.22
2023-05-19T18:41:12.331Z,95732.97
2023-05-19T18:43:40.693Z,95734.25
2023-05-19T18:46:08.556Z,95724.06
2023-05-19T18:48:36.906Z,95722.25
2023-05-19T18:51:05.273Z,95716.13
2023-05-19T18:53:35.069Z,95713.81
2023-05-19T18:56:06.800Z,95707.72
2023-05-19T18:58:35.199Z,95705.16
2023-05-19T19:01:03.028Z,95706.69
2023-05-19T19:03:31.792Z,95710.25
2023-05-19T19:06:00.747Z,95717.56
2023-05-19T19:08:29.094Z,95715.28
2023-05-19T19:11:00.526Z,95712.44
2023-05-19T19:13:29.053Z,95717.47
2023-05-19T19:15:57.006Z,95709.88
2023-05-19T19:18:26.419Z,95701.94
2023-05-19T19:20:55.227Z,95708.38
2023-05-19T19:23:24.113Z,95709.66
2023-05-19T19:25:52.227Z,95706.13
2023-05-19T19:28:21.046Z,95696.97
2023-05-19T19:30:49.991Z,95695.88
2023-05-19T19:33:18.435Z,95693.53
2023-05-19T19:35:47.211Z,95690.25
2023-05-19T19:38:15.415Z,95684.88
2023-05-19T19:40:43.402Z,95697.06
2023-05-19T19:43:11.684Z,95689.38
2023-05-19T19:45:39.955Z,95689.13
2023-05-19T19:48:09.629Z,95694.72
2023-05-19T19:50:39.130Z,95685.00
2023-05-19T19:53:09.030Z,95683.25
2023-05-19T19:55:37.042Z,95684.78
2023-05-19T19:58:05.288Z,95682.78
2023-05-19T20:00:33.363Z,95681.69
2023-05-19T20:03:05.507Z,95691.13
2023-05-19T20:05:34.553Z,95691.81
2023-05-19T20:08:02.830Z,95687.16
2023-05-19T20:10:30.684Z,95685.38
2023-05-19T20:12:59.771Z,95687.03
2023-05-19T20:15:28.338Z,95679.41
2023-05-19T20:17:56.579Z,95694.44
2023-05-19T20:20:25.086Z,95689.84
2023-05-19T20:22:53.350Z,95686.31
2023-05-19T20:25:21.268Z,95676.09
2023-05-19T20:27:50.431Z,95677.91
2023-05-19T20:30:18.780Z,95678.94
2023-05-19T20:32:50.982Z,95680.72
2023-05-19T20:35:19.385Z,95679.44
2023-05-19T20:37:48.266Z,95679.19
2023-05-19T20:40:16.274Z,95672.03
2023-05-19T20:42:45.115Z,95681.25
2023-05-19T20:45:13.046Z,95683.78
2023-05-19T20:47:41.298Z,95678.16
2023-05-19T20:50:09.641Z,95680.16
2023-05-19T20:52:37.922Z,95671.25
2023-05-19T20:55:06.001Z,95673.91
2023-05-19T20:57:34.520Z,95679.22
2023-05-19T21:00:02.902Z,95674.63
2023-05-19T21:02:37.980Z,95693.22
2023-05-19T21:05:06.324Z,95689.66
2023-05-19T21:07:34.715Z,95700.88
2023-05-19T21:10:02.957Z,95699.31
2023-05-19T21:12:34.324Z,95704.66
2023-05-19T21:15:03.988Z,95707.94
2023-05-19T21:17:32.418Z,95701.59
2023-05-19T21:20:00.940Z,95700.31
2023-05-19T21:22:32.425Z,95701.06
2023-05-19T21:25:00.445Z,95690.16
2023-05-19T21:27:28.677Z,95683.53
2023-05-19T21:29:56.612Z,95683.06
2023-05-19T21:32:41.622Z,95677.44
2023-05-19T21:35:09.814Z,95688.63
2023-05-19T21:37:38.634Z,95684.25
2023-05-19T21:40:08.311Z,95683.78
2023-05-19T21:42:36.876Z,95664.88
2023-05-19T21:45:05.399Z,95681.25
2023-05-19T21:47:34.741Z,95680.97
2023-05-19T21:50:02.879Z,95682.31
2023-05-19T21:52:32.681Z,95679.69
2023-05-19T21:55:00.511Z,95678.16
2023-05-19T21:57:28.711Z,95675.84
2023-05-19T21:59:56.853Z,95673.34
2023-05-19T22:02:27.694Z,95668.72
2023-05-19T22:05:16.424Z,95666.97
2023-05-19T22:07:46.530Z,95662.88
2023-05-19T22:10:14.622Z,95652.19
2023-05-19T22:12:42.928Z,95654.47
2023-05-19T22:15:11.814Z,95651.97
2023-05-19T22:17:40.109Z,95652.94
2023-05-19T22:20:08.590Z,95644.78
2023-05-19T22:22:36.931Z,95640.38
2023-05-19T22:25:05.326Z,95628.19
2023-05-19T22:27:33.569Z,95623.59
2023-05-19T22:30:01.475Z,95627.66
2023-05-19T22:32:33.255Z,95618.22
2023-05-19T22:35:01.735Z,95611.06
2023-05-19T22:37:32.501Z,95610.28
2023-05-19T22:40:00.573Z,95611.53
2023-05-19T22:42:30.975Z,95610.53
2023-05-19T22:44:59.285Z,95606.69
2023-05-19T22:47:27.785Z,95602.28
2023-05-19T22:49:57.183Z,95606.59
2023-05-19T22:52:26.210Z,95609.88
2023-05-19T22:54:54.152Z,95610.88
2023-05-19T22:57:22.628Z,95606.03
2023-05-19T22:59:50.626Z,95613.41
2023-05-19T23:02:20.037Z,95606.22
2023-05-19T23:04:48.146Z,95612.59
2023-05-19T23:07:16.446Z,95610.56
2023-05-19T23:09:44.336Z,95604.97
2023-05-19T23:12:12.794Z,95604.06
2023-05-19T23:14:40.637Z,95600.44
2023-05-19T23:17:09.153Z,95584.69
2023-05-19T23:19:37.516Z,95583.91
2023-05-19T23:22:05.905Z,95569.66
2023-05-19T23:24:35.797Z,95561.44
2023-05-19T23:27:04.135Z,95556.63
2023-05-19T23:29:32.136Z,95552.53
2023-05-19T23:32:00.509Z,95544.38
2023-05-19T23:34:28.570Z,95554.00
2023-05-19T23:36:56.729Z,95545.59
2023-05-19T23:39:25.638Z,95535.38
2023-05-19T23:41:53.839Z,95529.97
2023-05-19T23:44:21.787Z,95523.16
2023-05-19T23:46:50.537Z,95523.16
2023-05-19T23:49:18.529Z,95534.59
2023-05-19T23:51:47.008Z,95537.66
2023-05-19T23:54:14.799Z,95535.16
2023-05-19T23:56:43.116Z,95537.94
2023-05-19T23:59:12.210Z,95529.50
